sensor_id;sensor_type;location;lat;lon;timestamp;pressure;altitude;pressure_sealevel;temperature;humidity
23473;BME280;11909;52.516;13.564;2023-06-14T00:03:29;101191.88;;;15.13;64.43
23473;BME280;11909;52.516;13.564;2023-06-14T00:05:58;101194.63;;;15.13;64.50
23473;BME280;11909;52.516;13.564;2023-06-14T00:08:26;101197.53;;;15.22;64.60
23473;BME280;11909;52.516;13.564;2023-06-14T00:10:54;101192.53;;;15.24;64.41
23473;BME280;11909;52.516;13.564;2023-06-14T00:13:22;101194.78;;;15.22;64.73
23473;BME280;11909;52.516;13.564;2023-06-14T00:15:50;101187.38;;;15.17;64.97
23473;BME280;11909;52.516;13.564;2023-06-14T00:18:21;101188.28;;;15.12;65.21
23473;BME280;11909;52.516;13.564;2023-06-14T00:20:52;101189.78;;;15.04;65.75
23473;BME280;11909;52.516;13.564;2023-06-14T00:23:19;101183.13;;;15.05;65.78
23473;BME280;11909;52.516;13.564;2023-06-14T00:25:47;101188.75;;;15.00;66.25
23473;BME280;11909;52.516;13.564;2023-06-14T00:28:15;101187.16;;;14.94;66.63
23473;BME280;11909;52.516;13.564;2023-06-14T00:30:43;101185.00;;;14.91;66.70
23473;BME280;11909;52.516;13.564;2023-06-14T00:33:13;101179.56;;;14.86;67.08
23473;BME280;11909;52.516;13.564;2023-06-14T00:35:41;101188.09;;;14.89;67.36
23473;BME280;11909;52.516;13.564;2023-06-14T00:38:10;101186.13;;;14.90;67.35
23473;BME280;11909;52.516;13.564;2023-06-14T00:40:38;101185.31;;;14.89;67.73
23473;BME280;11909;52.516;13.564;2023-06-14T00:43:05;101190.28;;;14.87;67.78
23473;BME280;11909;52.516;13.564;2023-06-14T00:45:33;101183.97;;;14.87;67.86
23473;BME280;11909;52.516;13.564;2023-06-14T00:48:02;101188.38;;;14.88;68.08
23473;BME280;11909;52.516;13.564;2023-06-14T00:50:33;101178.81;;;14.80;68.47
23473;BME280;11909;52.516;13.564;2023-06-14T00:53:01;101195.19;;;14.76;68.45
23473;BME280;11909;52.516;13.564;2023-06-14T00:55:30;101186.34;;;14.74;68.67
23473;BME280;11909;52.516;13.564;2023-06-14T00:57:59;101178.78;;;14.61;69.10
23473;BME280;11909;52.516;13.564;2023-06-14T01:00:27;101178.69;;;14.66;69.31
23473;BME280;11909;52.516;13.564;2023-06-14T01:02:55;101176.31;;;14.59;69.22
23473;BME280;11909;52.516;13.564;2023-06-14T01:05:24;101179.97;;;14.55;69.21
23473;BME280;11909;52.516;13.564;2023-06-14T01:08:04;101177.56;;;14.48;69.38
23473;BME280;11909;52.516;13.564;2023-06-14T01:10:41;101173.00;;;14.38;70.10
23473;BME280;11909;52.516;13.564;2023-06-14T01:13:20;101176.94;;;14.32;70.61
23473;BME280;11909;52.516;13.564;2023-06-14T01:15:51;101179.53;;;14.23;71.11
23473;BME280;11909;52.516;13.564;2023-06-14T01:18:20;101169.13;;;14.15;71.83
23473;BME280;11909;52.516;13.564;2023-06-14T01:20:50;101172.19;;;14.13;72.22
23473;BME280;11909;52.516;13.564;2023-06-14T01:23:23;101179.13;;;14.11;72.28
23473;BME280;11909;52.516;13.564;2023-06-14T01:25:51;101172.47;;;14.12;72.36
23473;BME280;11909;52.516;13.564;2023-06-14T01:28:21;101178.59;;;14.09;72.38
23473;BME280;11909;52.516;13.564;2023-06-14T01:30:52;101180.00;;;14.06;72.86
23473;BME280;11909;52.516;13.564;2023-06-14T01:33:23;101175.66;;;14.00;73.45
23473;BME280;11909;52.516;13.564;2023-06-14T01:35:52;101181.16;;;14.00;73.59
23473;BME280;11909;52.516;13.564;2023-06-14T01:38:24;101176.50;;;14.00;73.92
23473;BME280;11909;52.516;13.564;2023-06-14T01:41:13;101175.66;;;14.00;73.76
23473;BME280;11909;52.516;13.564;2023-06-14T01:43:42;101178.94;;;14.02;73.61
23473;BME280;11909;52.516;13.564;2023-06-14T01:46:12;101181.94;;;14.05;73.31
23473;BME280;11909;52.516;13.564;2023-06-14T01:48:40;101173.38;;;14.07;73.40
23473;BME280;11909;52.516;13.564;2023-06-14T01:51:09;101178.31;;;14.10;73.28
23473;BME280;11909;52.516;13.564;2023-06-14T01:53:38;101171.69;;;14.11;73.18
23473;BME280;11909;52.516;13.564;2023-06-14T01:56:06;101176.06;;;14.12;73.09
23473;BME280;11909;52.516;13.564;2023-06-14T01:58:34;101168.09;;;14.11;73.42
23473;BME280;11909;52.516;13.564;2023-06-14T02:01:03;101174.78;;;14.04;73.73
23473;BME280;11909;52.516;13.564;2023-06-14T02:03:32;101178.66;;;14.03;73.88
23473;BME280;11909;52.516;13.564;2023-06-14T02:06:00;101171.50;;;14.02;74.18
23473;BME280;11909;52.516;13.564;2023-06-14T02:08:28;101177.94;;;13.93;74.52
23473;BME280;11909;52.516;13.564;2023-06-14T02:10:57;101183.47;;;13.93;74.34
23473;BME280;11909;52.516;13.564;2023-06-14T02:13:26;101187.34;;;13.91;74.64
23473;BME280;11909;52.516;13.564;2023-06-14T02:15:54;101189.91;;;13.83;75.14
23473;BME280;11909;52.516;13.564;2023-06-14T02:18:22;101177.50;;;13.80;75.28
23473;BME280;11909;52.516;13.564;2023-06-14T02:20:50;101190.19;;;13.81;75.76
23473;BME280;11909;52.516;13.564;2023-06-14T02:23:18;101181.56;;;13.88;75.64
23473;BME280;11909;52.516;13.564;2023-06-14T02:25:46;101188.22;;;13.87;75.66
23473;BME280;11909;52.516;13.564;2023-06-14T02:28:15;101182.09;;;13.90;75.54
23473;BME280;11909;52.516;13.564;2023-06-14T02:30:44;101179.69;;;13.83;75.84
23473;BME280;11909;52.516;13.564;2023-06-14T02:33:11;101179.94;;;13.87;76.23
23473;BME280;11909;52.516;13.564;2023-06-14T02:35:39;101175.84;;;13.84;76.35
23473;BME280;11909;52.516;13.564;2023-06-14T02:38:08;101176.97;;;13.78;76.71
23473;BME280;11909;52.516;13.564;2023-06-14T02:40:36;101178.97;;;13.72;77.17
23473;BME280;11909;52.516;13.564;2023-06-14T02:43:04;101176.97;;;13.78;76.98
23473;BME280;11909;52.516;13.564;2023-06-14T02:45:34;101181.63;;;13.83;76.64
23473;BME280;11909;52.516;13.564;2023-06-14T02:48:02;101193.97;;;13.90;76.28
23473;BME280;11909;52.516;13.564;2023-06-14T02:50:30;101189.31;;;13.86;76.55
23473;BME280;11909;52.516;13.564;2023-06-14T02:52:59;101188.53;;;13.80;76.84
23473;BME280;11909;52.516;13.564;2023-06-14T02:55:27;101181.97;;;13.76;76.88
23473;BME280;11909;52.516;13.564;2023-06-14T02:57:55;101182.50;;;13.78;77.07
23473;BME280;11909;52.516;13.564;2023-06-14T03:00:23;101185.84;;;13.75;77.11
23473;BME280;11909;52.516;13.564;2023-06-14T03:02:52;101179.28;;;13.71;77.34
23473;BME280;11909;52.516;13.564;2023-06-14T03:05:21;101183.69;;;13.72;77.74
23473;BME280;11909;52.516;13.564;2023-06-14T03:07:50;101182.63;;;13.68;77.77
23473;BME280;11909;52.516;13.564;2023-06-14T03:10:20;101180.97;;;13.67;77.62
23473;BME280;11909;52.516;13.564;2023-06-14T03:12:48;101172.44;;;13.63;78.27
23473;BME280;11909;52.516;13.564;2023-06-14T03:15:16;101174.94;;;13.59;78.08
23473;BME280;11909;52.516;13.564;2023-06-14T03:17:44;101170.81;;;13.62;78.20
23473;BME280;11909;52.516;13.564;2023-06-14T03:20:17;101177.16;;;13.62;78.69
23473;BME280;11909;52.516;13.564;2023-06-14T03:22:45;101180.47;;;13.59;78.84
23473;BME280;11909;52.516;13.564;2023-06-14T03:25:14;101181.03;;;13.61;78.79
23473;BME280;11909;52.516;13.564;2023-06-14T03:27:42;101182.09;;;13.66;79.09
23473;BME280;11909;52.516;13.564;2023-06-14T03:30:11;101189.78;;;13.69;78.63
23473;BME280;11909;52.516;13.564;2023-06-14T03:32:39;101183.44;;;13.68;78.91
23473;BME280;11909;52.516;13.564;2023-06-14T03:35:08;101183.19;;;13.65;79.03
23473;BME280;11909;52.516;13.564;2023-06-14T03:37:46;101188.72;;;13.65;78.82
23473;BME280;11909;52.516;13.564;2023-06-14T03:40:17;101180.19;;;13.61;79.06
23473;BME280;11909;52.516;13.564;2023-06-14T03:42:45;101192.34;;;13.60;79.09
23473;BME280;11909;52.516;13.564;2023-06-14T03:45:13;101188.53;;;13.56;79.22
23473;BME280;11909;52.516;13.564;2023-06-14T03:47:41;101182.16;;;13.55;79.52
23473;BME280;11909;52.516;13.564;2023-06-14T03:50:10;101184.69;;;13.52;80.08
23473;BME280;11909;52.516;13.564;2023-06-14T03:52:39;101189.38;;;13.51;80.60
23473;BME280;11909;52.516;13.564;2023-06-14T03:55:10;101187.94;;;13.59;80.58
23473;BME280;11909;52.516;13.564;2023-06-14T03:57:42;101200.88;;;13.64;80.90
23473;BME280;11909;52.516;13.564;2023-06-14T04:00:11;101207.19;;;13.64;81.69
23473;BME280;11909;52.516;13.564;2023-06-14T04:02:39;101215.66;;;13.73;80.81
23473;BME280;11909;52.516;13.564;2023-06-14T04:05:07;101210.09;;;13.78;80.72
23473;BME280;11909;52.516;13.564;2023-06-14T04:07:35;101216.63;;;13.87;80.26
23473;BME280;11909;52.516;13.564;2023-06-14T04:10:07;101210.00;;;13.88;79.96
23473;BME280;11909;52.516;13.564;2023-06-14T04:12:37;101212.44;;;13.90;79.83
23473;BME280;11909;52.516;13.564;2023-06-14T04:15:08;101219.59;;;13.96;79.73
23473;BME280;11909;52.516;13.564;2023-06-14T04:17:47;101220.41;;;13.97;79.79
23473;BME280;11909;52.516;13.564;2023-06-14T04:20:15;101217.34;;;13.98;79.60
23473;BME280;11909;52.516;13.564;2023-06-14T04:22:43;101214.81;;;14.02;79.50
23473;BME280;11909;52.516;13.564;2023-06-14T04:25:11;101219.75;;;14.05;79.24
23473;BME280;11909;52.516;13.564;2023-06-14T04:27:40;101217.22;;;14.09;78.92
23473;BME280;11909;52.516;13.564;2023-06-14T04:30:09;101224.69;;;14.08;79.34
23473;BME280;11909;52.516;13.564;2023-06-14T04:32:37;101219.66;;;14.15;78.80
23473;BME280;11909;52.516;13.564;2023-06-14T04:35:07;101223.00;;;14.12;79.16
23473;BME280;11909;52.516;13.564;2023-06-14T04:37:35;101217.69;;;14.16;78.80
23473;BME280;11909;52.516;13.564;2023-06-14T04:40:07;101213.81;;;14.17;79.13
23473;BME280;11909;52.516;13.564;2023-06-14T04:42:39;101214.59;;;14.23;78.59
23473;BME280;11909;52.516;13.564;2023-06-14T04:45:08;101219.53;;;14.26;78.73
23473;BME280;11909;52.516;13.564;2023-06-14T04:47:36;101230.56;;;14.26;78.73
23473;BME280;11909;52.516;13.564;2023-06-14T04:50:05;101228.31;;;14.28;78.86
23473;BME280;11909;52.516;13.564;2023-06-14T04:52:33;101229.69;;;14.30;78.82
23473;BME280;11909;52.516;13.564;2023-06-14T04:55:02;101232.69;;;14.34;78.77
23473;BME280;11909;52.516;13.564;2023-06-14T04:57:30;101221.88;;;14.38;78.92
23473;BME280;11909;52.516;13.564;2023-06-14T05:00:00;101225.97;;;14.40;78.72
23473;BME280;11909;52.516;13.564;2023-06-14T05:02:32;101227.34;;;14.43;78.68
23473;BME280;11909;52.516;13.564;2023-06-14T05:05:00;101232.56;;;14.44;78.60
23473;BME280;11909;52.516;13.564;2023-06-14T05:07:28;101226.97;;;14.49;78.63
23473;BME280;11909;52.516;13.564;2023-06-14T05:09:56;101227.72;;;14.55;78.74
23473;BME280;11909;52.516;13.564;2023-06-14T05:12:24;101219.09;;;14.62;78.69
23473;BME280;11909;52.516;13.564;2023-06-14T05:14:52;101225.06;;;14.69;78.41
23473;BME280;11909;52.516;13.564;2023-06-14T05:17:22;101232.78;;;14.72;78.37
23473;BME280;11909;52.516;13.564;2023-06-14T05:19:49;101236.81;;;14.80;77.82
23473;BME280;11909;52.516;13.564;2023-06-14T05:22:17;101232.28;;;14.89;77.60
23473;BME280;11909;52.516;13.564;2023-06-14T05:24:45;101238.34;;;14.91;77.39
23473;BME280;11909;52.516;13.564;2023-06-14T05:27:16;101244.91;;;14.96;77.54
23473;BME280;11909;52.516;13.564;2023-06-14T05:29:43;101244.84;;;15.01;77.25
23473;BME280;11909;52.516;13.564;2023-06-14T05:32:12;101253.56;;;15.08;77.15
23473;BME280;11909;52.516;13.564;2023-06-14T05:34:41;101246.63;;;15.11;77.13
23473;BME280;11909;52.516;13.564;2023-06-14T05:37:09;101242.97;;;15.15;76.38
23473;BME280;11909;52.516;13.564;2023-06-14T05:39:36;101256.81;;;15.15;76.88
23473;BME280;11909;52.516;13.564;2023-06-14T05:42:05;101262.53;;;15.19;77.01
23473;BME280;11909;52.516;13.564;2023-06-14T05:44:33;101255.38;;;15.18;77.12
23473;BME280;11909;52.516;13.564;2023-06-14T05:47:02;101262.00;;;15.17;76.96
23473;BME280;11909;52.516;13.564;2023-06-14T05:49:30;101252.59;;;15.18;76.88
23473;BME280;11909;52.516;13.564;2023-06-14T05:51:59;101256.13;;;15.24;76.82
23473;BME280;11909;52.516;13.564;2023-06-14T05:54:28;101264.31;;;15.29;77.23
23473;BME280;11909;52.516;13.564;2023-06-14T05:56:55;101264.66;;;15.27;77.16
23473;BME280;11909;52.516;13.564;2023-06-14T05:59:29;101267.41;;;15.27;76.27
23473;BME280;11909;52.516;13.564;2023-06-14T06:01:57;101262.16;;;15.26;76.27
23473;BME280;11909;52.516;13.564;2023-06-14T06:04:25;101268.81;;;15.25;76.21
23473;BME280;11909;52.516;13.564;2023-06-14T06:06:54;101260.75;;;15.28;76.53
23473;BME280;11909;52.516;13.564;2023-06-14T06:09:23;101270.97;;;15.28;76.77
23473;BME280;11909;52.516;13.564;2023-06-14T06:11:50;101265.69;;;15.31;76.92
23473;BME280;11909;52.516;13.564;2023-06-14T06:14:20;101268.69;;;15.35;76.92
23473;BME280;11909;52.516;13.564;2023-06-14T06:16:47;101261.19;;;15.36;76.33
23473;BME280;11909;52.516;13.564;2023-06-14T06:19:16;101258.94;;;15.38;76.55
23473;BME280;11909;52.516;13.564;2023-06-14T06:21:43;101259.47;;;15.40;76.48
23473;BME280;11909;52.516;13.564;2023-06-14T06:24:11;101257.22;;;15.42;76.29
23473;BME280;11909;52.516;13.564;2023-06-14T06:26:42;101257.72;;;15.44;75.92
23473;BME280;11909;52.516;13.564;2023-06-14T06:29:09;101249.53;;;15.39;76.43
23473;BME280;11909;52.516;13.564;2023-06-14T06:31:38;101257.72;;;15.44;76.38
23473;BME280;11909;52.516;13.564;2023-06-14T06:34:06;101256.59;;;15.45;76.27
23473;BME280;11909;52.516;13.564;2023-06-14T06:36:34;101252.44;;;15.47;75.99
23473;BME280;11909;52.516;13.564;2023-06-14T06:39:02;101256.03;;;15.48;76.15
23473;BME280;11909;52.516;13.564;2023-06-14T06:41:37;101263.13;;;15.54;76.18
23473;BME280;11909;52.516;13.564;2023-06-14T06:44:07;101259.75;;;15.57;76.19
23473;BME280;11909;52.516;13.564;2023-06-14T06:46:37;101266.09;;;15.58;76.10
23473;BME280;11909;52.516;13.564;2023-06-14T06:49:07;101268.25;;;15.61;76.30
23473;BME280;11909;52.516;13.564;2023-06-14T06:51:35;101264.28;;;15.67;76.16
23473;BME280;11909;52.516;13.564;2023-06-14T06:54:03;101271.06;;;15.75;76.53
23473;BME280;11909;52.516;13.564;2023-06-14T06:56:32;101274.88;;;15.79;76.36
23473;BME280;11909;52.516;13.564;2023-06-14T06:59:00;101275.63;;;15.85;76.02
23473;BME280;11909;52.516;13.564;2023-06-14T07:01:29;101281.09;;;15.90;75.60
23473;BME280;11909;52.516;13.564;2023-06-14T07:04:00;101280.88;;;16.00;75.79
23473;BME280;11909;52.516;13.564;2023-06-14T07:06:30;101280.00;;;16.05;75.58
23473;BME280;11909;52.516;13.564;2023-06-14T07:08:57;101284.63;;;16.10;75.46
23473;BME280;11909;52.516;13.564;2023-06-14T07:11:28;101293.94;;;16.14;75.48
23473;BME280;11909;52.516;13.564;2023-06-14T07:13:56;101279.19;;;16.18;75.61
23473;BME280;11909;52.516;13.564;2023-06-14T07:16:24;101285.53;;;16.19;75.83
23473;BME280;11909;52.516;13.564;2023-06-14T07:18:53;101275.50;;;16.23;75.99
23473;BME280;11909;52.516;13.564;2023-06-14T07:21:21;101295.50;;;16.34;75.42
23473;BME280;11909;52.516;13.564;2023-06-14T07:23:49;101295.00;;;16.46;75.60
23473;BME280;11909;52.516;13.564;2023-06-14T07:26:17;101302.91;;;16.53;74.91
23473;BME280;11909;52.516;13.564;2023-06-14T07:28:45;101306.00;;;16.65;74.87
23473;BME280;11909;52.516;13.564;2023-06-14T07:31:14;101312.25;;;16.71;74.75
23473;BME280;11909;52.516;13.564;2023-06-14T07:33:42;101300.44;;;16.79;73.81
23473;BME280;11909;52.516;13.564;2023-06-14T07:36:12;101303.63;;;16.86;73.46
23473;BME280;11909;52.516;13.564;2023-06-14T07:38:39;101314.59;;;16.91;72.69
23473;BME280;11909;52.516;13.564;2023-06-14T07:41:07;101305.66;;;16.95;72.41
23473;BME280;11909;52.516;13.564;2023-06-14T07:43:35;101309.69;;;17.02;72.62
23473;BME280;11909;52.516;13.564;2023-06-14T07:46:04;101308.53;;;17.03;71.87
23473;BME280;11909;52.516;13.564;2023-06-14T07:48:33;101305.97;;;17.07;72.25
23473;BME280;11909;52.516;13.564;2023-06-14T07:51:02;101302.28;;;17.12;71.90
23473;BME280;11909;52.516;13.564;2023-06-14T07:53:32;101303.91;;;17.13;71.57
23473;BME280;11909;52.516;13.564;2023-06-14T07:56:00;101297.75;;;17.16;72.08
23473;BME280;11909;52.516;13.564;2023-06-14T07:58:29;101288.81;;;17.19;72.11
23473;BME280;11909;52.516;13.564;2023-06-14T08:00:57;101290.94;;;17.22;71.74
23473;BME280;11909;52.516;13.564;2023-06-14T08:03:25;101292.59;;;17.23;71.44
23473;BME280;11909;52.516;13.564;2023-06-14T08:05:53;101293.28;;;17.29;71.43
23473;BME280;11909;52.516;13.564;2023-06-14T08:08:22;101289.25;;;17.35;71.05
23473;BME280;11909;52.516;13.564;2023-06-14T08:10:51;101295.81;;;17.39;70.05
23473;BME280;11909;52.516;13.564;2023-06-14T08:13:19;101288.19;;;17.45;70.55
23473;BME280;11909;52.516;13.564;2023-06-14T08:15:47;101300.31;;;17.49;70.22
23473;BME280;11909;52.516;13.564;2023-06-14T08:18:15;101293.13;;;17.48;69.23
23473;BME280;11909;52.516;13.564;2023-06-14T08:20:43;101291.56;;;17.56;70.39
23473;BME280;11909;52.516;13.564;2023-06-14T08:23:11;101291.31;;;17.66;70.25
23473;BME280;11909;52.516;13.564;2023-06-14T08:25:40;101283.66;;;17.72;69.89
23473;BME280;11909;52.516;13.564;2023-06-14T08:28:10;101293.81;;;17.76;68.43
23473;BME280;11909;52.516;13.564;2023-06-14T08:30:38;101283.56;;;17.77;67.90
23473;BME280;11909;52.516;13.564;2023-06-14T08:33:05;101279.63;;;17.78;68.59
23473;BME280;11909;52.516;13.564;2023-06-14T08:35:43;101282.06;;;17.80;68.89
23473;BME280;11909;52.516;13.564;2023-06-14T08:38:11;101282.06;;;17.80;69.17
23473;BME280;11909;52.516;13.564;2023-06-14T08:40:39;101280.78;;;17.77;67.15
23473;BME280;11909;52.516;13.564;2023-06-14T08:43:10;101280.94;;;17.81;67.32
23473;BME280;11909;52.516;13.564;2023-06-14T08:45:39;101289.97;;;17.86;67.70
23473;BME280;11909;52.516;13.564;2023-06-14T08:48:07;101285.09;;;17.92;68.58
23473;BME280;11909;52.516;13.564;2023-06-14T08:50:36;101290.81;;;17.96;67.65
23473;BME280;11909;52.516;13.564;2023-06-14T08:53:08;101291.84;;;18.00;66.47
23473;BME280;11909;52.516;13.564;2023-06-14T08:55:37;101301.72;;;18.06;65.85
23473;BME280;11909;52.516;13.564;2023-06-14T08:58:10;101311.03;;;18.10;66.25
23473;BME280;11909;52.516;13.564;2023-06-14T09:00:42;101300.63;;;18.16;66.79
23473;BME280;11909;52.516;13.564;2023-06-14T09:03:11;101296.06;;;18.20;66.73
23473;BME280;11909;52.516;13.564;2023-06-14T09:05:41;101295.28;;;18.28;67.73
23473;BME280;11909;52.516;13.564;2023-06-14T09:08:10;101303.16;;;18.35;67.34
23473;BME280;11909;52.516;13.564;2023-06-14T09:10:40;101305.63;;;18.37;66.16
23473;BME280;11909;52.516;13.564;2023-06-14T09:13:09;101308.91;;;18.39;66.01
23473;BME280;11909;52.516;13.564;2023-06-14T09:15:37;101311.34;;;18.40;64.62
23473;BME280;11909;52.516;13.564;2023-06-14T09:18:05;101309.22;;;18.37;64.64
23473;BME280;11909;52.516;13.564;2023-06-14T09:20:34;101301.88;;;18.41;65.66
23473;BME280;11909;52.516;13.564;2023-06-14T09:23:02;101300.72;;;18.42;65.98
23473;BME280;11909;52.516;13.564;2023-06-14T09:25:32;101300.13;;;18.45;66.89
23473;BME280;11909;52.516;13.564;2023-06-14T09:28:06;101298.13;;;18.46;64.82
23473;BME280;11909;52.516;13.564;2023-06-14T09:30:38;101306.03;;;18.53;64.83
23473;BME280;11909;52.516;13.564;2023-06-14T09:33:06;101320.59;;;18.58;64.82
23473;BME280;11909;52.516;13.564;2023-06-14T09:35:35;101314.88;;;18.63;64.28
23473;BME280;11909;52.516;13.564;2023-06-14T09:38:03;101309.47;;;18.67;63.91
23473;BME280;11909;52.516;13.564;2023-06-14T09:40:34;101314.44;;;18.70;63.75
23473;BME280;11909;52.516;13.564;2023-06-14T09:43:05;101320.13;;;18.74;62.77
23473;BME280;11909;52.516;13.564;2023-06-14T09:45:38;101321.47;;;18.76;61.91
23473;BME280;11909;52.516;13.564;2023-06-14T09:48:08;101327.34;;;18.75;62.01
23473;BME280;11909;52.516;13.564;2023-06-14T09:50:37;101316.56;;;18.73;62.24
23473;BME280;11909;52.516;13.564;2023-06-14T09:53:07;101314.56;;;18.74;62.45
23473;BME280;11909;52.516;13.564;2023-06-14T09:55:40;101321.63;;;18.71;62.66
23473;BME280;11909;52.516;13.564;2023-06-14T09:58:10;101319.34;;;18.73;61.87
23473;BME280;11909;52.516;13.564;2023-06-14T10:00:41;101313.44;;;18.75;61.76
23473;BME280;11909;52.516;13.564;2023-06-14T10:03:16;101314.75;;;18.77;61.98
23473;BME280;11909;52.516;13.564;2023-06-14T10:05:50;101314.75;;;18.77;62.42
23473;BME280;11909;52.516;13.564;2023-06-14T10:08:20;101308.25;;;18.82;63.23
23473;BME280;11909;52.516;13.564;2023-06-14T10:10:53;101313.97;;;18.86;62.37
23473;BME280;11909;52.516;13.564;2023-06-14T10:13:21;101312.66;;;18.83;61.28
23473;BME280;11909;52.516;13.564;2023-06-14T10:15:57;101318.88;;;18.80;61.24
23473;BME280;11909;52.516;13.564;2023-06-14T10:18:31;101312.47;;;18.80;61.61
23473;BME280;11909;52.516;13.564;2023-06-14T10:21:08;101314.75;;;18.77;61.51
23473;BME280;11909;52.516;13.564;2023-06-14T10:23:42;101309.19;;;18.77;62.11
23473;BME280;11909;52.516;13.564;2023-06-14T10:26:18;101314.28;;;18.75;60.98
23473;BME280;11909;52.516;13.564;2023-06-14T10:28:58;101318.84;;;18.71;60.58
23473;BME280;11909;52.516;13.564;2023-06-14T10:31:41;101311.66;;;18.70;60.69
23473;BME280;11909;52.516;13.564;2023-06-14T10:34:10;101313.44;;;18.75;60.81
23473;BME280;11909;52.516;13.564;2023-06-14T10:36:40;101306.09;;;18.79;61.42
23473;BME280;11909;52.516;13.564;2023-06-14T10:39:14;101303.97;;;18.85;62.23
23473;BME280;11909;52.516;13.564;2023-06-14T10:41:50;101298.91;;;18.87;61.86
23473;BME280;11909;52.516;13.564;2023-06-14T10:44:39;101300.91;;;18.95;61.57
23473;BME280;11909;52.516;13.564;2023-06-14T10:47:10;101296.00;;;19.01;62.52
23473;BME280;11909;52.516;13.564;2023-06-14T10:49:41;101295.22;;;19.09;61.82
23473;BME280;11909;52.516;13.564;2023-06-14T10:52:10;101299.00;;;19.13;61.48
23473;BME280;11909;52.516;13.564;2023-06-14T10:54:59;101293.44;;;19.13;61.84
23473;BME280;11909;52.516;13.564;2023-06-14T10:57:27;101295.91;;;19.15;60.88
23473;BME280;11909;52.516;13.564;2023-06-14T10:59:57;101289.00;;;19.12;60.64
23473;BME280;11909;52.516;13.564;2023-06-14T11:02:46;101285.88;;;19.14;63.04
23473;BME280;11909;52.516;13.564;2023-06-14T11:05:23;101278.69;;;19.22;64.13
23473;BME280;11909;52.516;13.564;2023-06-14T11:10:44;101276.88;;;19.26;61.84
23473;BME280;11909;52.516;13.564;2023-06-14T11:13:15;101280.81;;;19.25;60.83
23473;BME280;11909;52.516;13.564;2023-06-14T11:15:44;101278.03;;;19.25;61.10
23473;BME280;11909;52.516;13.564;2023-06-14T11:18:15;101271.69;;;19.33;61.71
23473;BME280;11909;52.516;13.564;2023-06-14T11:20:46;101266.09;;;19.33;60.76
23473;BME280;11909;52.516;13.564;2023-06-14T11:23:15;101270.69;;;19.38;60.48
23473;BME280;11909;52.516;13.564;2023-06-14T11:25:42;101261.84;;;19.44;61.35
23473;BME280;11909;52.516;13.564;2023-06-14T11:28:10;101263.81;;;19.53;60.79
23473;BME280;11909;52.516;13.564;2023-06-14T11:30:38;101260.19;;;19.61;60.62
23473;BME280;11909;52.516;13.564;2023-06-14T11:33:09;101250.19;;;19.69;63.16
23473;BME280;11909;52.516;13.564;2023-06-14T11:35:39;101256.25;;;19.71;63.07
23473;BME280;11909;52.516;13.564;2023-06-14T11:38:07;101253.47;;;19.71;60.45
23473;BME280;11909;52.516;13.564;2023-06-14T11:40:37;101239.84;;;19.78;62.06
23473;BME280;11909;52.516;13.564;2023-06-14T11:43:06;101246.06;;;19.84;61.19
23473;BME280;11909;52.516;13.564;2023-06-14T11:45:33;101252.59;;;19.97;59.88
23473;BME280;11909;52.516;13.564;2023-06-14T11:48:03;101240.13;;;20.03;58.91
23473;BME280;11909;52.516;13.564;2023-06-14T11:50:31;101249.41;;;20.16;59.27
23473;BME280;11909;52.516;13.564;2023-06-14T11:53:01;101237.75;;;20.23;58.80
23473;BME280;11909;52.516;13.564;2023-06-14T11:55:36;101230.19;;;20.32;58.62
23473;BME280;11909;52.516;13.564;2023-06-14T11:58:05;101226.13;;;20.51;59.08
23473;BME280;11909;52.516;13.564;2023-06-14T12:00:35;101219.44;;;20.73;57.35
23473;BME280;11909;52.516;13.564;2023-06-14T12:03:03;101215.59;;;20.86;56.22
23473;BME280;11909;52.516;13.564;2023-06-14T12:05:33;101220.78;;;20.97;55.02
23473;BME280;11909;52.516;13.564;2023-06-14T12:08:04;101208.78;;;21.17;56.29
23473;BME280;11909;52.516;13.564;2023-06-14T12:10:39;101214.22;;;21.35;53.99
23473;BME280;11909;52.516;13.564;2023-06-14T12:13:10;101211.03;;;21.58;53.77
23473;BME280;11909;52.516;13.564;2023-06-14T12:15:38;101211.69;;;21.76;52.94
23473;BME280;11909;52.516;13.564;2023-06-14T12:18:06;101214.38;;;21.97;53.38
23473;BME280;11909;52.516;13.564;2023-06-14T12:20:35;101224.41;;;22.11;46.77
23473;BME280;11909;52.516;13.564;2023-06-14T12:23:05;101215.44;;;22.30;49.58
23473;BME280;11909;52.516;13.564;2023-06-14T12:25:36;101202.63;;;22.41;50.57
23473;BME280;11909;52.516;13.564;2023-06-14T12:28:06;101213.81;;;22.54;45.58
23473;BME280;11909;52.516;13.564;2023-06-14T12:30:36;101217.88;;;22.69;46.68
23473;BME280;11909;52.516;13.564;2023-06-14T12:33:05;101218.56;;;22.78;44.11
23473;BME280;11909;52.516;13.564;2023-06-14T12:35:34;101210.97;;;22.91;45.23
23473;BME280;11909;52.516;13.564;2023-06-14T12:38:02;101215.97;;;22.98;42.63
23473;BME280;11909;52.516;13.564;2023-06-14T12:40:32;101201.47;;;23.08;44.07
23473;BME280;11909;52.516;13.564;2023-06-14T12:43:00;101208.53;;;23.18;43.12
23473;BME280;11909;52.516;13.564;2023-06-14T12:45:27;101202.44;;;23.28;44.96
23473;BME280;11909;52.516;13.564;2023-06-14T12:47:56;101195.16;;;23.40;45.89
23473;BME280;11909;52.516;13.564;2023-06-14T12:50:24;101196.75;;;23.53;43.96
23473;BME280;11909;52.516;13.564;2023-06-14T12:52:52;101189.53;;;23.68;44.91
23473;BME280;11909;52.516;13.564;2023-06-14T12:55:20;101194.75;;;23.86;43.53
23473;BME280;11909;52.516;13.564;2023-06-14T12:57:49;101201.38;;;23.94;42.18